createdAt,value
2018-09-03T00:01:02.318Z,17.20
2018-09-03T00:03:34.238Z,17.10
2018-09-03T00:06:06.459Z,17.10
2018-09-03T00:08:38.078Z,17.10
2018-09-03T00:11:10.098Z,17.10
2018-09-03T00:13:42.738Z,17.00
2018-09-03T00:16:14.558Z,17.00
2018-09-03T00:18:47.382Z,17.00
2018-09-03T00:21:18.758Z,16.90
2018-09-03T00:23:50.738Z,16.90
2018-09-03T00:26:22.242Z,16.90
2018-09-03T00:28:54.458Z,16.80
2018-09-03T00:31:30.939Z,16.70
2018-09-03T00:34:07.518Z,16.70
2018-09-03T00:36:43.678Z,16.70
2018-09-03T00:39:20.478Z,16.70
2018-09-03T00:41:56.638Z,16.70
2018-09-03T00:44:33.459Z,16.60
2018-09-03T00:47:09.978Z,16.60
2018-09-03T00:49:43.217Z,16.50
2018-09-03T00:52:15.136Z,16.50
2018-09-03T00:54:46.977Z,16.40
2018-09-03T00:57:19.497Z,16.50
2018-09-03T00:59:51.576Z,16.50
2018-09-03T01:02:23.457Z,16.50
2018-09-03T01:04:54.736Z,16.50
2018-09-03T01:07:26.377Z,16.40
2018-09-03T01:09:58.557Z,16.40
2018-09-03T01:12:30.457Z,16.40
2018-09-03T01:15:03.017Z,16.30
2018-09-03T01:17:34.840Z,16.30
2018-09-03T01:20:08.020Z,16.30
2018-09-03T01:22:40.037Z,16.30
2018-09-03T01:25:12.057Z,16.30
2018-09-03T01:27:44.397Z,16.30
2018-09-03T01:30:17.141Z,16.20
2018-09-03T01:32:48.596Z,16.20
2018-09-03T01:35:21.256Z,16.10
2018-09-03T01:37:52.796Z,16.10
2018-09-03T01:40:25.757Z,16.10
2018-09-03T01:42:57.717Z,16.10
2018-09-03T01:45:30.077Z,16.10
2018-09-03T01:48:01.837Z,16.10
2018-09-03T01:50:33.097Z,16.10
2018-09-03T01:53:05.196Z,16.10
2018-09-03T01:55:36.977Z,16.00
2018-09-03T01:58:09.336Z,16.00
2018-09-03T02:00:40.857Z,16.00
2018-09-03T02:03:13.296Z,16.00
2018-09-03T02:05:45.117Z,16.10
2018-09-03T02:08:17.116Z,16.10
2018-09-03T02:10:48.436Z,16.00
2018-09-03T02:13:21.316Z,16.00
2018-09-03T02:15:53.716Z,16.00
2018-09-03T02:18:26.076Z,16.00
2018-09-03T02:20:58.719Z,16.00
2018-09-03T02:23:30.996Z,15.90
2018-09-03T02:26:02.784Z,15.90
2018-09-03T02:28:35.236Z,16.00
2018-09-03T02:31:06.977Z,16.00
2018-09-03T02:33:38.716Z,16.10
2018-09-03T02:36:10.716Z,16.00
2018-09-03T02:38:42.896Z,16.00
2018-09-03T02:41:14.476Z,15.90
2018-09-03T02:43:46.836Z,15.90
2018-09-03T02:46:19.616Z,15.90
2018-09-03T02:48:51.198Z,15.90
2018-09-03T02:51:22.956Z,15.90
2018-09-03T02:53:54.724Z,15.90
2018-09-03T02:56:27.184Z,15.80
2018-09-03T02:58:58.816Z,15.90
2018-09-03T03:01:30.937Z,15.90
2018-09-03T03:04:02.896Z,16.00
2018-09-03T03:06:35.216Z,16.00
2018-09-03T03:09:08.517Z,16.00
2018-09-03T03:11:41.573Z,16.00
2018-09-03T03:14:13.558Z,16.00
2018-09-03T03:16:45.656Z,16.00
2018-09-03T03:19:18.556Z,16.00
2018-09-03T03:21:50.196Z,16.10
2018-09-03T03:24:22.136Z,16.10
2018-09-03T03:26:53.916Z,16.00
2018-09-03T03:29:25.816Z,16.10
2018-09-03T03:31:57.616Z,16.10
2018-09-03T03:34:29.856Z,16.10
2018-09-03T03:37:01.696Z,16.20
2018-09-03T03:39:34.237Z,16.10
2018-09-03T03:42:05.557Z,16.10
2018-09-03T03:44:37.456Z,16.10
2018-09-03T03:47:15.256Z,16.10
2018-09-03T03:49:48.637Z,16.20
2018-09-03T03:52:20.396Z,16.20
2018-09-03T03:54:53.046Z,16.20
2018-09-03T03:57:25.857Z,16.20
2018-09-03T03:59:57.620Z,16.20
2018-09-03T04:02:29.836Z,16.30
2018-09-03T04:05:02.317Z,16.30
2018-09-03T04:07:34.316Z,16.30
2018-09-03T04:10:06.697Z,16.40
2018-09-03T04:12:38.556Z,16.40
2018-09-03T04:15:10.936Z,16.40
2018-09-03T04:17:42.916Z,16.40
2018-09-03T04:20:15.237Z,16.30
2018-09-03T04:22:47.701Z,16.30
2018-09-03T04:25:19.697Z,16.30
2018-09-03T04:27:51.696Z,16.20
2018-09-03T04:30:23.737Z,16.20
2018-09-03T04:32:56.536Z,16.20
2018-09-03T04:35:29.236Z,16.20
2018-09-03T04:38:01.456Z,16.20
2018-09-03T04:40:33.396Z,16.10
2018-09-03T04:43:05.616Z,16.10
2018-09-03T04:45:37.661Z,16.10
2018-09-03T04:48:09.904Z,16.10
2018-09-03T04:50:42.619Z,16.10
2018-09-03T04:53:14.197Z,16.20
2018-09-03T04:55:46.257Z,16.20
2018-09-03T04:58:18.998Z,16.20
2018-09-03T05:00:50.857Z,16.30
2018-09-03T05:03:23.458Z,16.30
2018-09-03T05:05:55.074Z,16.30
2018-09-03T05:08:27.118Z,16.30
2018-09-03T05:10:59.557Z,16.30
2018-09-03T05:13:31.797Z,16.20
2018-09-03T05:16:04.197Z,16.20
2018-09-03T05:18:35.537Z,16.20
2018-09-03T05:21:08.205Z,16.20
2018-09-03T05:23:40.877Z,16.30
2018-09-03T05:26:12.637Z,16.30
2018-09-03T05:28:44.816Z,16.30
2018-09-03T05:31:17.034Z,16.30
2018-09-03T05:33:49.037Z,16.30
2018-09-03T05:36:20.858Z,16.30
2018-09-03T05:38:52.957Z,16.40
2018-09-03T05:41:25.476Z,16.40
2018-09-03T05:43:57.254Z,16.40
2018-09-03T05:46:29.616Z,16.40
2018-09-03T05:49:01.677Z,16.50
2018-09-03T05:51:33.537Z,16.50
2018-09-03T05:54:05.998Z,16.60
2018-09-03T05:56:39.096Z,16.70
2018-09-03T05:59:10.698Z,16.70
2018-09-03T06:01:42.457Z,16.70
2018-09-03T06:04:14.556Z,16.80
2018-09-03T06:06:46.579Z,16.90
2018-09-03T06:09:19.657Z,16.90
2018-09-03T06:11:51.739Z,17.00
2018-09-03T06:14:23.877Z,17.00
2018-09-03T06:16:56.116Z,17.00
2018-09-03T06:19:27.777Z,17.10
2018-09-03T06:21:59.838Z,17.20
2018-09-03T06:24:31.843Z,17.20
2018-09-03T06:27:04.237Z,17.20
2018-09-03T06:29:35.517Z,17.20
2018-09-03T06:32:07.555Z,17.20
2018-09-03T06:34:39.536Z,17.30
2018-09-03T06:37:11.557Z,17.30
2018-09-03T06:39:43.696Z,17.40
2018-09-03T06:42:15.537Z,17.40
2018-09-03T06:44:47.816Z,17.50
2018-09-03T06:47:19.676Z,17.60
2018-09-03T06:49:51.516Z,17.60
2018-09-03T06:52:23.736Z,17.60
2018-09-03T06:54:55.377Z,17.70
2018-09-03T06:57:26.921Z,17.80
2018-09-03T06:59:59.680Z,17.80
2018-09-03T07:02:31.497Z,17.90
2018-09-03T07:05:02.796Z,18.00
2018-09-03T07:07:33.816Z,18.10
2018-09-03T07:10:04.853Z,18.10
2018-09-03T07:12:36.064Z,18.20
2018-09-03T07:15:07.705Z,18.10
2018-09-03T07:17:38.761Z,18.10
2018-09-03T07:20:10.371Z,18.20
2018-09-03T07:22:42.124Z,18.20
2018-09-03T07:25:12.894Z,18.30
2018-09-03T07:27:44.908Z,18.30
2018-09-03T07:30:15.421Z,18.40
2018-09-03T07:32:46.255Z,18.30
2018-09-03T07:35:17.986Z,18.30
2018-09-03T07:37:49.156Z,18.30
2018-09-03T07:40:20.954Z,18.40
2018-09-03T07:42:52.076Z,18.40
2018-09-03T07:45:23.011Z,18.50
2018-09-03T07:47:54.249Z,18.50
2018-09-03T07:50:25.365Z,18.60
2018-09-03T07:52:56.410Z,18.60
2018-09-03T07:55:27.703Z,18.70
2018-09-03T07:57:59.268Z,18.80
2018-09-03T08:00:31.028Z,18.90
2018-09-03T08:03:02.590Z,19.10
2018-09-03T08:05:35.059Z,19.20
2018-09-03T08:08:05.966Z,19.30
2018-09-03T08:10:37.978Z,19.30
2018-09-03T08:13:09.355Z,19.20
2018-09-03T08:15:43.221Z,19.40
2018-09-03T08:18:14.821Z,19.50
2018-09-03T08:20:46.405Z,19.60
2018-09-03T08:23:18.221Z,19.60
2018-09-03T08:25:50.541Z,19.60
2018-09-03T08:28:22.221Z,19.60
2018-09-03T08:30:54.161Z,19.70
2018-09-03T08:33:25.282Z,19.60
2018-09-03T08:35:57.441Z,19.60
2018-09-03T08:38:28.944Z,19.60
2018-09-03T08:41:01.141Z,19.60
2018-09-03T08:43:33.242Z,19.60
2018-09-03T08:46:05.261Z,19.60
2018-09-03T08:48:37.081Z,19.60
2018-09-03T08:51:08.624Z,19.60
2018-09-03T08:53:40.601Z,19.60
2018-09-03T08:56:12.189Z,19.60
2018-09-03T08:58:43.901Z,19.70
2018-09-03T09:01:16.382Z,19.80
2018-09-03T09:03:48.598Z,19.80
2018-09-03T09:06:20.361Z,19.80
2018-09-03T09:08:51.961Z,19.80
2018-09-03T09:11:24.301Z,19.80
2018-09-03T09:13:56.202Z,19.90
2018-09-03T09:16:28.521Z,19.90
2018-09-03T09:19:00.624Z,19.90
2018-09-03T09:21:32.562Z,20.00
2018-09-03T09:24:04.441Z,19.90
2018-09-03T09:26:36.710Z,19.90
2018-09-03T09:29:08.621Z,19.90
2018-09-03T09:31:41.421Z,19.90
2018-09-03T09:34:12.429Z,20.00
2018-09-03T09:36:44.305Z,20.10
2018-09-03T09:39:15.375Z,20.30
2018-09-03T09:41:47.784Z,20.40
2018-09-03T09:44:19.245Z,20.50
2018-09-03T09:46:50.901Z,20.50
2018-09-03T09:49:23.543Z,20.50
2018-09-03T09:51:55.461Z,20.50
2018-09-03T09:54:27.613Z,20.50
2018-09-03T09:56:59.764Z,20.60
2018-09-03T09:59:31.983Z,20.60
2018-09-03T10:02:03.690Z,20.80
2018-09-03T10:04:35.907Z,20.90
2018-09-03T10:07:07.368Z,20.80
2018-09-03T10:09:39.743Z,21.00
2018-09-03T10:12:11.724Z,21.20
2018-09-03T10:14:44.204Z,21.30
2018-09-03T10:17:16.423Z,21.20
2018-09-03T10:19:48.324Z,21.20
2018-09-03T10:22:20.864Z,21.20
2018-09-03T10:24:52.327Z,21.20
2018-09-03T10:27:24.704Z,21.30
2018-09-03T10:29:56.305Z,21.50
2018-09-03T10:32:29.692Z,21.80
2018-09-03T10:35:01.646Z,22.30
2018-09-03T10:37:33.883Z,22.40
2018-09-03T10:40:04.725Z,22.30
2018-09-03T10:42:37.044Z,22.30
2018-09-03T10:45:10.086Z,22.30
2018-09-03T10:47:42.178Z,22.10
2018-09-03T10:50:14.226Z,21.90
2018-09-03T10:52:46.964Z,22.00
2018-09-03T10:55:18.764Z,21.80
2018-09-03T10:57:50.604Z,21.90
2018-09-03T11:00:22.184Z,21.90
2018-09-03T11:02:54.625Z,22.00
2018-09-03T11:05:26.193Z,22.00
2018-09-03T11:07:57.964Z,22.00
2018-09-03T11:10:29.604Z,22.00
2018-09-03T11:13:01.898Z,21.90
2018-09-03T11:15:33.864Z,21.80
2018-09-03T11:18:05.863Z,21.80
2018-09-03T11:20:38.725Z,21.80
2018-09-03T11:23:11.203Z,21.70
2018-09-03T11:25:43.024Z,21.70
2018-09-03T11:28:15.049Z,21.70
2018-09-03T11:30:47.792Z,21.80
2018-09-03T11:33:20.970Z,21.80
2018-09-03T11:35:52.784Z,21.80
2018-09-03T11:38:24.827Z,21.90
2018-09-03T11:40:56.406Z,21.90
2018-09-03T11:43:28.046Z,21.80
2018-09-03T11:46:00.784Z,21.90
2018-09-03T11:48:32.665Z,21.90
2018-09-03T11:51:05.644Z,22.00
2018-09-03T11:53:37.990Z,21.90
2018-09-03T11:56:09.606Z,21.90
2018-09-03T11:58:41.765Z,21.80
2018-09-03T12:01:13.765Z,21.80
2018-09-03T12:03:45.345Z,21.90
2018-09-03T12:06:17.106Z,21.90
2018-09-03T12:08:49.108Z,22.00
2018-09-03T12:11:20.503Z,22.10
2018-09-03T12:13:52.749Z,22.30
2018-09-03T12:16:27.064Z,22.30
2018-09-03T12:19:00.327Z,22.40
2018-09-03T12:21:32.026Z,22.40
2018-09-03T12:24:04.185Z,22.50
2018-09-03T12:26:36.384Z,22.60
2018-09-03T12:29:08.449Z,22.50
2018-09-03T12:31:41.510Z,22.50
2018-09-03T12:34:13.605Z,22.50
2018-09-03T12:36:46.787Z,22.60
2018-09-03T12:39:19.545Z,22.60
2018-09-03T12:41:52.446Z,22.50
2018-09-03T12:44:25.664Z,22.60
2018-09-03T12:46:58.024Z,22.80
2018-09-03T12:49:30.184Z,23.00
2018-09-03T12:52:02.424Z,23.00
2018-09-03T12:54:34.406Z,23.30
2018-09-03T12:57:06.857Z,23.60
2018-09-03T12:59:38.423Z,23.90
2018-09-03T13:02:11.584Z,24.10
2018-09-03T13:04:44.284Z,24.20
2018-09-03T13:07:16.446Z,24.20
2018-09-03T13:09:47.963Z,24.10
2018-09-03T13:12:19.487Z,24.00
2018-09-03T13:14:51.504Z,23.90
2018-09-03T13:17:23.123Z,23.80
2018-09-03T13:19:55.424Z,24.10
2018-09-03T13:22:26.606Z,24.30
2018-09-03T13:24:58.330Z,24.30
2018-09-03T13:27:30.692Z,24.30
2018-09-03T13:30:01.923Z,24.40
2018-09-03T13:32:34.144Z,24.40
2018-09-03T13:35:06.323Z,24.40
2018-09-03T13:37:39.318Z,24.20
2018-09-03T13:40:10.724Z,24.20
2018-09-03T13:42:43.446Z,24.20
2018-09-03T13:45:15.686Z,23.90
2018-09-03T13:47:48.363Z,23.60
2018-09-03T13:50:19.505Z,23.70
2018-09-03T13:52:51.304Z,23.70
2018-09-03T13:55:24.145Z,23.80
2018-09-03T13:57:56.003Z,23.70
2018-09-03T14:00:30.144Z,23.60
2018-09-03T14:03:02.644Z,23.60
2018-09-03T14:05:34.744Z,23.40
2018-09-03T14:08:09.645Z,23.30
2018-09-03T14:10:41.667Z,23.20
2018-09-03T14:13:13.846Z,23.10
2018-09-03T14:15:45.732Z,23.10
2018-09-03T14:18:18.643Z,23.20
2018-09-03T14:20:50.304Z,23.20
2018-09-03T14:23:22.124Z,23.30
2018-09-03T14:25:54.464Z,23.30
2018-09-03T14:28:26.359Z,23.30
2018-09-03T14:30:57.767Z,23.20
2018-09-03T14:34:00.704Z,23.10
2018-09-03T14:36:32.204Z,23.00
2018-09-03T14:39:04.104Z,23.00
2018-09-03T14:41:35.844Z,23.00
2018-09-03T14:44:07.904Z,22.90
2018-09-03T14:46:39.367Z,22.70
2018-09-03T14:49:11.284Z,22.70
2018-09-03T14:51:42.852Z,22.70
2018-09-03T14:54:15.863Z,22.60
2018-09-03T14:56:50.723Z,22.60
2018-09-03T14:59:23.144Z,22.60
2018-09-03T15:01:57.584Z,22.60
2018-09-03T15:04:30.084Z,22.50
2018-09-03T15:07:03.525Z,22.40
2018-09-03T15:09:36.683Z,22.40
2018-09-03T15:12:08.504Z,22.40
2018-09-03T15:14:40.790Z,22.40
2018-09-03T15:17:13.644Z,22.40
2018-09-03T15:19:46.084Z,22.50
2018-09-03T15:22:18.545Z,22.50
2018-09-03T15:24:50.164Z,22.30
2018-09-03T15:27:23.043Z,22.20
2018-09-03T15:29:55.270Z,22.20
2018-09-03T15:32:27.424Z,22.30
2018-09-03T15:35:00.665Z,22.30
2018-09-03T15:37:33.945Z,22.40
2018-09-03T15:40:07.724Z,22.30
2018-09-03T15:42:41.064Z,22.40
2018-09-03T15:45:14.044Z,22.40
2018-09-03T15:47:47.685Z,22.40
2018-09-03T15:50:18.944Z,22.30
2018-09-03T15:52:55.205Z,22.20
2018-09-03T15:55:26.744Z,22.20
2018-09-03T15:58:01.124Z,22.20
2018-09-03T16:00:34.444Z,22.20
2018-09-03T16:03:06.301Z,22.10
2018-09-03T16:05:38.165Z,22.00
2018-09-03T16:08:10.345Z,22.00
2018-09-03T16:10:42.284Z,21.90
2018-09-03T16:13:14.786Z,21.80
2018-09-03T16:15:48.064Z,21.80
2018-09-03T16:18:20.447Z,21.80
2018-09-03T16:20:52.171Z,21.80
2018-09-03T16:23:23.465Z,21.80
2018-09-03T16:25:58.885Z,21.80
2018-09-03T16:28:31.044Z,21.80
2018-09-03T16:31:35.784Z,21.70
2018-09-03T16:34:08.065Z,21.80
2018-09-03T16:36:40.665Z,21.70
2018-09-03T16:39:12.806Z,21.80
2018-09-03T16:41:45.689Z,21.80
2018-09-03T16:44:18.984Z,21.80
2018-09-03T16:46:53.568Z,21.80
2018-09-03T16:49:26.205Z,21.80
2018-09-03T16:51:59.084Z,21.70
2018-09-03T16:54:30.724Z,21.80
2018-09-03T16:57:07.344Z,21.70
2018-09-03T16:59:41.605Z,21.60
2018-09-03T17:02:14.364Z,21.60
2018-09-03T17:04:46.948Z,21.60
2018-09-03T17:07:19.453Z,21.60
2018-09-03T17:09:52.385Z,21.60
2018-09-03T17:12:24.705Z,21.60
2018-09-03T17:14:57.604Z,21.50
2018-09-03T17:17:31.064Z,21.50
2018-09-03T17:20:11.226Z,21.50
2018-09-03T17:22:42.984Z,21.40
2018-09-03T17:25:16.044Z,21.20
2018-09-03T17:27:48.964Z,21.10
2018-09-03T17:30:24.645Z,21.10
2018-09-03T17:32:56.426Z,21.10
2018-09-03T17:35:30.644Z,21.10
2018-09-03T17:38:03.006Z,21.00
2018-09-03T17:40:34.683Z,21.00
2018-09-03T17:43:07.072Z,21.00
2018-09-03T17:45:38.487Z,20.90
2018-09-03T17:48:13.263Z,20.80
2018-09-03T17:50:47.944Z,20.70
2018-09-03T17:53:23.064Z,20.70
2018-09-03T17:55:57.123Z,20.60
2018-09-03T17:58:29.505Z,20.50
2018-09-03T18:01:02.706Z,20.50
2018-09-03T18:03:35.044Z,20.50
2018-09-03T18:06:08.864Z,20.50
2018-09-03T18:08:42.765Z,20.50
2018-09-03T18:14:23.225Z,20.30
2018-09-03T18:16:57.988Z,20.20
2018-09-03T18:19:31.364Z,20.10
2018-09-03T18:22:04.025Z,20.10
2018-09-03T18:24:38.224Z,20.10
2018-09-03T18:27:13.264Z,20.10
2018-09-03T18:29:45.504Z,20.00
2018-09-03T18:32:23.204Z,20.00
2018-09-03T18:34:58.814Z,19.90
2018-09-03T18:37:31.044Z,19.80
2018-09-03T18:40:04.687Z,19.80
2018-09-03T18:42:39.706Z,19.70
2018-09-03T18:45:16.508Z,19.60
2018-09-03T18:47:51.846Z,19.60
2018-09-03T18:50:27.374Z,19.50
2018-09-03T18:52:59.987Z,19.40
2018-09-03T18:55:33.586Z,19.30
2018-09-03T18:59:12.146Z,19.30
2018-09-03T19:01:44.526Z,19.20
2018-09-03T19:04:17.186Z,19.20
2018-09-03T19:06:50.246Z,19.10
2018-09-03T19:09:33.426Z,19.10
2018-09-03T19:12:08.135Z,19.10
2018-09-03T19:14:41.266Z,19.00
2018-09-03T19:17:45.246Z,19.00
2018-09-03T19:20:19.727Z,19.00
2018-09-03T19:22:54.282Z,19.00
2018-09-03T19:25:27.222Z,19.00
2018-09-03T19:28:02.201Z,19.00
2018-09-03T19:33:41.763Z,19.00
2018-09-03T19:36:14.182Z,18.90
2018-09-03T19:38:51.382Z,18.80
2018-09-03T19:41:25.003Z,18.80
2018-09-03T19:43:58.061Z,18.80
2018-09-03T19:46:34.722Z,18.80
2018-09-03T19:49:09.902Z,18.80
2018-09-03T19:51:43.941Z,18.80
2018-09-03T19:54:16.726Z,18.80
2018-09-03T19:56:50.601Z,18.70
2018-09-03T19:59:23.563Z,18.70
2018-09-03T20:01:56.761Z,18.60
2018-09-03T20:04:28.810Z,18.60
2018-09-03T20:07:00.550Z,18.60
2018-09-03T20:09:32.841Z,18.60
2018-09-03T20:12:06.025Z,18.60
2018-09-03T20:17:56.361Z,18.40
2018-09-03T20:20:31.942Z,18.40
2018-09-03T20:23:04.753Z,18.50
2018-09-03T20:25:39.422Z,18.50
2018-09-03T20:28:11.763Z,18.50
2018-09-03T20:30:44.100Z,18.50
2018-09-03T20:33:15.550Z,18.50
2018-09-03T20:35:52.403Z,18.50
2018-09-03T20:38:26.482Z,18.50
2018-09-03T20:40:59.401Z,18.50
2018-09-03T20:43:33.261Z,18.50
2018-09-03T20:46:06.582Z,18.40
2018-09-03T20:48:40.982Z,18.40
2018-09-03T20:51:21.702Z,18.40
2018-09-03T20:53:58.201Z,18.40
2018-09-03T20:56:31.481Z,18.40
2018-09-03T20:59:02.860Z,18.30
2018-09-03T21:01:37.458Z,18.20
2018-09-03T21:04:10.784Z,18.20
2018-09-03T21:06:48.221Z,18.20
2018-09-03T21:09:20.841Z,18.10
2018-09-03T21:11:54.160Z,18.10
2018-09-03T21:14:31.149Z,18.00
2018-09-03T21:17:03.745Z,18.00
2018-09-03T21:19:36.505Z,18.00
2018-09-03T21:22:09.105Z,18.00
2018-09-03T21:24:44.007Z,18.00
2018-09-03T21:27:19.705Z,17.90
2018-09-03T21:29:52.107Z,17.90
2018-09-03T21:32:24.067Z,17.90
2018-09-03T21:34:59.787Z,17.90
2018-09-03T21:37:31.725Z,18.00
2018-09-03T21:40:04.447Z,17.90
2018-09-03T21:42:36.045Z,17.90
2018-09-03T21:45:09.666Z,17.90
2018-09-03T21:47:43.066Z,17.80
2018-09-03T21:50:15.645Z,17.90
2018-09-03T21:52:47.036Z,17.90
2018-09-03T21:55:18.546Z,17.90
2018-09-03T21:57:50.645Z,18.00
2018-09-03T22:00:23.026Z,18.00
2018-09-03T22:02:54.447Z,18.10
2018-09-03T22:05:26.766Z,18.00
2018-09-03T22:07:58.266Z,18.00
2018-09-03T22:10:31.285Z,17.90
2018-09-03T22:13:02.865Z,17.90
2018-09-03T22:15:34.585Z,17.90
2018-09-03T22:18:06.966Z,17.80
2018-09-03T22:20:39.186Z,17.70
2018-09-03T22:23:10.926Z,17.70
2018-09-03T22:25:42.767Z,17.70
2018-09-03T22:28:14.826Z,17.70
2018-09-03T22:30:48.150Z,17.60
2018-09-03T22:33:20.406Z,17.60
2018-09-03T22:35:52.426Z,17.60
2018-09-03T22:38:24.947Z,17.50
2018-09-03T22:40:57.646Z,17.50
2018-09-03T22:43:29.787Z,17.50
2018-09-03T22:46:02.166Z,17.50
2018-09-03T22:48:34.066Z,17.50
2018-09-03T22:51:06.766Z,17.40
2018-09-03T22:53:38.806Z,17.40
2018-09-03T22:56:10.767Z,17.40
2018-09-03T22:58:43.026Z,17.40
2018-09-03T23:01:14.526Z,17.40
2018-09-03T23:03:47.047Z,17.40
2018-09-03T23:06:19.306Z,17.30
2018-09-03T23:08:51.346Z,17.30
2018-09-03T23:11:23.508Z,17.30
2018-09-03T23:13:55.566Z,17.30
2018-09-03T23:16:27.986Z,17.30
2018-09-03T23:19:00.706Z,17.30
2018-09-03T23:21:32.666Z,17.20
2018-09-03T23:24:04.726Z,17.20
2018-09-03T23:26:36.846Z,17.20
2018-09-03T23:29:09.028Z,17.20
2018-09-03T23:31:41.226Z,17.10
2018-09-03T23:34:13.207Z,17.10
2018-09-03T23:36:45.727Z,17.10
2018-09-03T23:39:18.186Z,17.10
2018-09-03T23:41:49.965Z,17.00
2018-09-03T23:44:22.407Z,16.90
2018-09-03T23:46:54.625Z,16.90
2018-09-03T23:49:26.546Z,16.90
2018-09-03T23:51:58.768Z,16.90
2018-09-03T23:54:30.545Z,16.90
2018-09-03T23:57:01.787Z,16.90
2018-09-03T23:59:33.524Z,16.90
